Time;durP1;ratioP1;P1;durP2;ratioP2;P2;SDS_P1;SDS_P2;PMS_P1;PMS_P2;Temp;Humidity;BMP_temperature;BMP_pressure;BME280_temperature;BME280_humidity;BME280_pressure;Samples;Min_cycle;Max_cycle;Signal;HPM_P1;HPM_P2
2022/07/24 00:01:05;;;;;;;9.10;5.57;;;;;;;19.56;66.21;93287.78;5070526;28;20098;-76
2022/07/24 00:03:32;;;;;;;9.52;4.97;;;;;;;19.72;66.52;93317.22;5070456;28;20151;-76
2022/07/24 00:05:58;;;;;;;10.38;5.57;;;;;;;19.64;67.25;93297.69;5070133;28;20094;-76
2022/07/24 00:08:25;;;;;;;10.52;5.55;;;;;;;19.63;66.84;93312.53;5070373;28;20445;-76
2022/07/24 00:10:52;;;;;;;9.93;5.38;;;;;;;19.63;67.19;93315.13;5070104;28;20052;-76
2022/07/24 00:13:19;;;;;;;8.27;4.50;;;;;;;19.48;67.03;93291.72;5070121;28;20052;-77
2022/07/24 00:15:46;;;;;;;12.85;5.65;;;;;;;19.42;67.38;93288.34;5070392;28;20083;-77
2022/07/24 00:18:14;;;;;;;11.23;5.20;;;;;;;19.41;67.61;93299.03;5070328;28;20047;-77
2022/07/24 00:20:41;;;;;;;12.23;5.57;;;;;;;19.38;69.49;93299.56;5070008;28;20638;-76
2022/07/24 00:23:08;;;;;;;11.55;5.45;;;;;;;19.14;72.12;93303.47;5069617;28;20091;-76
2022/07/24 00:25:34;;;;;;;10.32;5.20;;;;;;;18.97;73.78;93303.69;5069818;28;20090;-76
2022/07/24 00:28:01;;;;;;;10.98;5.43;;;;;;;18.56;75.13;93266.19;5069788;28;20044;-76
2022/07/24 00:30:28;;;;;;;8.82;5.95;;;;;;;18.68;74.95;93297.16;5069712;28;20048;-77
2022/07/24 00:32:54;;;;;;;9.55;5.85;;;;;;;18.72;75.46;93300.03;5069236;28;20455;-76
2022/07/24 00:35:23;;;;;;;9.73;5.38;;;;;;;18.81;74.11;93300.31;5069534;28;20045;-76
2022/07/24 00:37:49;;;;;;;8.60;5.07;;;;;;;18.94;73.04;93299.78;5069861;28;20041;-76
2022/07/24 00:40:16;;;;;;;8.43;5.85;;;;;;;19.06;72.76;93289.16;5069615;28;20040;-77
2022/07/24 00:42:43;;;;;;;11.07;5.85;;;;;;;19.19;72.27;93289.66;5069738;28;20051;-77
2022/07/24 00:45:11;;;;;;;9.48;5.57;;;;;;;19.27;72.10;93289.16;5069491;28;20041;-76
2022/07/24 00:47:38;;;;;;;8.57;5.65;;;;;;;19.26;72.52;93289.41;5069672;28;20053;-76
2022/07/24 00:50:05;;;;;;;11.13;6.00;;;;;;;19.16;72.74;93279.78;5069594;28;20048;-77
2022/07/24 00:52:34;;;;;;;8.88;5.63;;;;;;;19.23;72.73;93291.50;5069339;28;20099;-77
2022/07/24 00:55:01;;;;;;;9.60;5.78;;;;;;;19.18;71.88;93298.53;5069514;28;20044;-77
2022/07/24 00:57:27;;;;;;;9.35;6.35;;;;;;;19.13;72.97;93290.72;5069248;28;20444;-76
2022/07/24 00:59:54;;;;;;;10.93;5.57;;;;;;;19.08;73.03;93289.66;5069392;28;20049;-77
2022/07/24 01:02:21;;;;;;;9.65;5.40;;;;;;;19.05;73.52;93285.00;5069478;28;20041;-77
2022/07/24 01:04:48;;;;;;;10.23;5.60;;;;;;;18.98;72.79;93291.47;5069093;28;20045;-76
2022/07/24 01:07:15;;;;;;;10.70;5.43;;;;;;;18.95;73.21;93290.16;5069275;28;20553;-79
2022/07/24 01:09:44;;;;;;;11.07;5.57;;;;;;;19.00;73.22;93284.16;5069580;28;20497;-78
2022/07/24 01:12:11;;;;;;;8.63;5.03;;;;;;;19.01;72.72;93283.91;5069224;28;20546;-79
2022/07/24 01:14:38;;;;;;;9.38;5.75;;;;;;;19.08;72.65;93288.91;5069553;28;20058;-80
2022/07/24 01:17:05;;;;;;;10.07;5.63;;;;;;;19.02;72.56;93276.91;5069559;28;20563;-78
2022/07/24 01:19:32;;;;;;;13.82;5.28;;;;;;;19.08;71.82;93292.25;5069305;28;20040;-78
2022/07/24 01:22:00;;;;;;;13.73;5.72;;;;;;;19.06;72.10;93285.75;5069365;28;20041;-78
2022/07/24 01:24:27;;;;;;;8.98;5.53;;;;;;;18.90;70.75;93269.34;5069485;28;20455;-78
2022/07/24 01:26:53;;;;;;;7.28;5.10;;;;;;;18.98;70.50;93287.03;5069578;28;20040;-78
2022/07/24 01:29:20;;;;;;;9.68;6.07;;;;;;;18.84;70.76;93286.75;5068944;28;20040;-78
2022/07/24 01:31:48;;;;;;;9.25;5.63;;;;;;;18.76;70.90;93280.28;5068943;28;20049;-78
2022/07/24 01:34:15;;;;;;;11.00;5.30;;;;;;;18.78;70.29;93286.00;5069269;28;20443;-78
2022/07/24 01:36:42;;;;;;;10.13;5.15;;;;;;;18.76;70.56;93280.28;5069390;28;20165;-79
2022/07/24 01:39:10;;;;;;;11.43;5.60;;;;;;;18.76;71.14;93282.88;5068923;28;20044;-82
2022/07/24 01:41:37;;;;;;;10.45;6.18;;;;;;;18.67;71.71;93281.81;5069426;28;20127;-82
2022/07/24 01:44:05;;;;;;;9.10;5.32;;;;;;;18.68;72.56;93278.97;5069347;28;20048;-81
2022/07/24 01:46:31;;;;;;;8.80;5.53;;;;;;;18.62;72.70;93272.19;5069496;28;20048;-81
2022/07/24 01:48:58;;;;;;;10.63;5.57;;;;;;;18.62;73.89;93277.38;5069659;28;20056;-80
2022/07/24 01:51:25;;;;;;;10.15;5.25;;;;;;;18.61;73.09;93275.81;5069608;28;20048;-80
2022/07/24 01:53:52;;;;;;;9.88;5.45;;;;;;;18.61;73.21;93275.81;5069392;28;20049;-80
2022/07/24 01:56:21;;;;;;;9.25;5.63;;;;;;;18.52;73.05;93277.38;5069612;28;20409;-80
2022/07/24 01:58:48;;;;;;;8.18;5.22;;;;;;;18.47;73.01;93272.91;5069262;28;20048;-80
2022/07/24 02:01:14;;;;;;;7.78;5.38;;;;;;;18.39;73.71;93271.63;5068892;28;20550;-80
2022/07/24 02:03:41;;;;;;;10.63;5.95;;;;;;;18.36;73.94;93274.72;5069469;28;20094;-80
2022/07/24 02:06:08;;;;;;;10.50;5.95;;;;;;;18.33;74.21;93277.81;5069158;28;20052;-80
2022/07/24 02:08:35;;;;;;;11.70;5.90;;;;;;;18.29;75.57;93276.78;5069308;28;20100;-80
2022/07/24 02:11:02;;;;;;;12.15;5.80;;;;;;;18.23;75.64;93270.03;5069016;28;20053;-80
2022/07/24 02:13:30;;;;;;;13.07;6.40;;;;;;;18.21;77.28;93272.88;5069150;28;20053;-80
2022/07/24 02:15:56;;;;;;;12.32;7.53;;;;;;;18.30;76.83;93284.31;5069142;28;20040;-80
2022/07/24 02:18:23;;;;;;;10.30;5.85;;;;;;;18.20;76.88;93273.91;5068865;28;20044;-80
2022/07/24 02:20:50;;;;;;;12.65;6.25;;;;;;;18.25;77.05;93280.94;5069294;28;20106;-80
2022/07/24 02:23:18;;;;;;;11.25;5.88;;;;;;;18.25;76.89;93280.94;5069327;28;20067;-80
2022/07/24 02:25:46;;;;;;;10.02;6.13;;;;;;;18.19;77.33;93274.16;5069318;28;20131;-80
2022/07/24 02:28:13;;;;;;;11.35;6.63;;;;;;;18.12;78.13;93274.38;5069218;28;20128;-80
2022/07/24 02:30:41;;;;;;;21.05;11.75;;;;;;;18.01;80.09;93289.91;5069217;28;20045;-80
2022/07/24 02:33:09;;;;;;;30.75;18.80;;;;;;;18.00;80.03;93271.97;5068629;28;20044;-78
2022/07/24 02:35:35;;;;;;;27.35;15.20;;;;;;;18.02;78.46;93278.47;5065336;28;20079;-79
2022/07/24 02:38:03;;;;;;;21.17;11.82;;;;;;;18.08;78.00;93274.13;5067161;28;20137;-78
2022/07/24 02:40:31;;;;;;;16.38;9.25;;;;;;;18.12;78.43;93279.59;5068585;28;20076;-78
2022/07/24 02:42:58;;;;;;;15.45;8.45;;;;;;;18.07;78.09;93282.97;5069052;28;20041;-78
2022/07/24 02:45:26;;;;;;;14.05;7.10;;;;;;;17.96;77.79;93261.31;5068910;28;20074;-78
2022/07/24 02:47:56;;;;;;;12.13;6.90;;;;;;;18.19;76.66;93274.16;5069592;28;20053;-78
2022/07/24 02:50:25;;;;;;;10.98;5.85;;;;;;;18.24;76.42;93280.16;5068838;28;20500;-78
2022/07/24 02:52:55;;;;;;;11.82;6.50;;;;;;;18.20;76.96;93286.13;5068969;28;20060;-79
2022/07/24 02:55:21;;;;;;;12.15;6.07;;;;;;;18.21;77.79;93283.28;5069561;28;20078;-79
2022/07/24 02:57:48;;;;;;;10.25;6.05;;;;;;;18.14;77.89;93280.91;5072027;28;20106;-79
2022/07/24 03:00:17;;;;;;;9.18;5.45;;;;;;;18.16;77.19;93284.00;5072532;28;20458;-79
2022/07/24 03:02:44;;;;;;;11.48;6.13;;;;;;;18.07;76.94;93275.16;5072207;28;20036;-79
2022/07/24 03:05:13;;;;;;;13.95;5.93;;;;;;;17.88;77.86;93269.59;5072472;28;20550;-79
2022/07/24 03:07:40;;;;;;;10.27;6.90;;;;;;;17.91;78.47;93274.28;5072638;28;20106;-78
2022/07/24 03:10:09;;;;;;;11.95;6.07;;;;;;;17.90;77.68;93276.09;5072563;28;20048;-79
2022/07/24 03:12:36;;;;;;;11.63;5.93;;;;;;;17.81;77.57;93280.22;5072449;28;20045;-80
2022/07/24 03:15:04;;;;;;;14.43;6.22;;;;;;;17.73;78.23;93284.06;5072494;28;20048;-80
2022/07/24 03:17:30;;;;;;;9.13;5.53;;;;;;;17.68;78.74;93286.63;5072407;28;20048;-80
2022/07/24 03:19:57;;;;;;;8.30;5.57;;;;;;;17.54;79.60;93281.09;5072284;28;20098;-80
2022/07/24 03:22:25;;;;;;;14.85;7.50;;;;;;;17.57;79.25;93279.81;5072059;28;20056;-78
2022/07/24 03:24:52;;;;;;;14.25;5.90;;;;;;;17.47;78.93;93255.38;5072095;28;20051;-79
2022/07/24 03:27:19;;;;;;;9.88;5.70;;;;;;;17.67;79.06;93282.47;5072036;28;20110;-79
2022/07/24 03:29:46;;;;;;;10.38;6.28;;;;;;;17.71;78.52;93274.97;5071829;28;20044;-79
2022/07/24 03:32:13;;;;;;;13.15;6.20;;;;;;;17.75;78.63;93274.22;5072042;28;20443;-79
2022/07/24 03:34:40;;;;;;;10.93;6.72;;;;;;;17.57;78.81;93243.47;5071914;28;20045;-79
2022/07/24 03:37:06;;;;;;;10.02;6.18;;;;;;;17.82;78.21;93279.19;5071922;28;20092;-81
2022/07/24 03:39:36;;;;;;;12.98;6.68;;;;;;;17.86;78.50;93279.44;5072087;28;20053;-81
2022/07/24 03:42:02;;;;;;;17.02;6.68;;;;;;;17.87;79.07;93281.78;5071796;28;20056;-80
2022/07/24 03:44:29;;;;;;;10.57;6.55;;;;;;;17.92;78.93;93282.88;5071940;28;20114;-79
2022/07/24 03:46:56;;;;;;;14.05;6.90;;;;;;;17.95;78.76;93272.75;5071783;28;20049;-79
2022/07/24 03:49:23;;;;;;;9.15;6.60;;;;;;;17.96;78.71;93278.72;5071877;28;20453;-81
2022/07/24 03:51:49;;;;;;;16.08;7.38;;;;;;;17.98;78.11;93277.44;5057460;28;20040;-81
2022/07/24 03:54:16;;;;;;;15.70;6.72;;;;;;;17.98;77.95;93280.03;5071684;28;20455;-81
2022/07/24 03:56:44;;;;;;;13.05;6.32;;;;;;;17.96;78.18;93276.13;5068423;28;20044;-80
2022/07/24 03:59:11;;;;;;;13.98;6.90;;;;;;;17.93;78.55;93261.03;5071606;28;20036;-80
2022/07/24 04:01:38;;;;;;;16.17;7.60;;;;;;;17.98;78.57;93266.25;5068726;28;20053;-78
2022/07/24 04:04:05;;;;;;;14.35;6.65;;;;;;;18.03;79.22;93280.06;5071338;28;20122;-77
2022/07/24 04:06:32;;;;;;;12.18;7.03;;;;;;;18.02;78.60;93281.06;5059804;28;20051;-78
2022/07/24 04:08:59;;;;;;;12.18;6.60;;;;;;;18.01;78.23;93276.91;5068913;28;20095;-78
2022/07/24 04:11:26;;;;;;;11.77;6.30;;;;;;;18.07;78.03;93277.75;5067873;28;20129;-77
2022/07/24 04:13:54;;;;;;;17.23;6.50;;;;;;;18.13;78.76;93286.34;5071125;28;20052;-77
2022/07/24 04:16:22;;;;;;;15.88;7.93;;;;;;;18.19;78.24;93279.38;5060840;28;20041;-77
2022/07/24 04:18:49;;;;;;;15.35;6.93;;;;;;;18.23;78.21;93281.19;5064072;28;20044;-77
2022/07/24 04:21:16;;;;;;;9.68;6.07;;;;;;;18.36;77.53;93286.94;5052719;28;20057;-83
2022/07/24 04:23:43;;;;;;;16.80;7.75;;;;;;;18.49;77.16;93283.88;5048876;28;20041;-83
2022/07/24 04:26:10;;;;;;;15.30;6.22;;;;;;;18.67;76.18;93287.00;5049468;28;20513;-77
2022/07/24 04:28:36;;;;;;;13.02;6.00;;;;;;;18.79;75.61;93273.75;5053748;28;20087;-77
2022/07/24 04:31:05;;;;;;;9.90;5.50;;;;;;;18.94;75.58;93270.38;5062453;28;20098;-77
2022/07/24 04:33:32;;;;;;;13.40;6.43;;;;;;;19.06;73.98;93275.34;5062292;28;20056;-81
2022/07/24 04:35:58;;;;;;;8.40;5.15;;;;;;;19.12;74.10;93271.69;5070418;28;20047;-78
2022/07/24 04:38:25;;;;;;;12.38;6.00;;;;;;;19.11;75.92;93285.75;5070042;28;20571;-78
2022/07/24 04:40:52;;;;;;;17.02;7.97;;;;;;;18.82;80.70;93288.84;5070446;28;20110;-78
2022/07/24 04:43:19;;;;;;;18.70;8.93;;;;;;;18.49;82.00;93285.66;5070292;28;20492;-78
2022/07/24 04:45:45;;;;;;;13.43;7.82;;;;;;;18.33;81.98;93288.22;5069686;28;20103;-77
2022/07/24 04:48:14;;;;;;;13.25;7.47;;;;;;;18.53;79.97;93291.94;5070043;28;20612;-77
2022/07/24 04:50:40;;;;;;;15.52;7.57;;;;;;;18.74;78.89;93291.97;5070489;28;20444;-77
2022/07/24 04:53:07;;;;;;;19.00;7.80;;;;;;;18.92;78.82;93283.66;5069877;28;20109;-77
2022/07/24 04:55:34;;;;;;;12.63;8.30;;;;;;;19.13;75.89;93282.91;5070346;28;20048;-77
2022/07/24 04:58:01;;;;;;;15.35;7.55;;;;;;;19.19;77.63;93287.06;5070411;28;20097;-77
2022/07/24 05:00:27;;;;;;;16.15;8.20;;;;;;;19.18;75.44;93275.09;5070186;28;20402;-78
2022/07/24 05:02:54;;;;;;;15.70;8.02;;;;;;;19.42;75.70;93293.56;5070550;28;20052;-78
2022/07/24 05:05:22;;;;;;;15.38;7.55;;;;;;;19.54;77.15;93295.09;5070296;28;20045;-79
2022/07/24 05:07:49;;;;;;;15.95;7.78;;;;;;;19.60;77.46;93299.25;5070039;28;20045;-79
2022/07/24 05:10:16;;;;;;;24.52;10.60;;;;;;;19.67;75.95;93299.00;5070372;28;20056;-79
2022/07/24 05:12:43;;;;;;;23.67;11.60;;;;;;;19.75;73.21;93291.41;5070185;28;20080;-80
2022/07/24 05:15:11;;;;;;;22.45;10.10;;;;;;;19.93;73.32;93283.25;5070329;28;20049;-80
2022/07/24 05:17:38;;;;;;;24.45;10.75;;;;;;;19.93;76.49;93297.09;5069978;28;20045;-80
2022/07/24 05:20:06;;;;;;;19.00;9.38;;;;;;;20.02;73.67;93292.94;5069556;28;20037;-80
2022/07/24 05:22:34;;;;;;;20.33;10.52;;;;;;;20.06;73.46;93271.53;5069702;28;20071;-82
2022/07/24 05:25:01;;;;;;;28.00;11.85;;;;;;;20.16;73.84;93276.69;5069907;28;20048;-81
2022/07/24 05:27:28;;;;;;;24.48;10.20;;;;;;;20.32;76.13;93282.59;5069588;28;20094;-80
2022/07/24 05:29:54;;;;;;;21.95;11.23;;;;;;;20.37;75.76;93282.59;5069923;28;20048;-79
2022/07/24 05:32:21;;;;;;;26.50;12.85;;;;;;;20.45;73.01;93283.09;5069959;28;20098;-79
2022/07/24 05:34:48;;;;;;;33.72;13.60;;;;;;;20.69;74.30;93280.59;5070056;28;20106;-79
2022/07/24 05:37:15;;;;;;;28.42;12.65;;;;;;;20.89;70.34;93286.75;5069987;28;20040;-80
2022/07/24 05:39:43;;;;;;;46.30;20.30;;;;;;;21.09;71.38;93285.81;5069725;28;20049;-78
2022/07/24 05:42:10;;;;;;;41.42;20.55;;;;;;;21.30;67.21;93277.81;5069800;28;20113;-78
2022/07/24 05:44:37;;;;;;;42.92;18.95;;;;;;;21.52;66.68;93274.72;5069574;28;20492;-78
2022/07/24 05:47:04;;;;;;;44.22;18.83;;;;;;;21.69;66.46;93269.06;5069512;28;20131;-78
2022/07/24 05:49:31;;;;;;;42.50;18.98;;;;;;;22.03;66.60;93280.50;5069860;28;20574;-78
2022/07/24 05:51:57;;;;;;;50.63;22.70;;;;;;;22.16;64.01;93269.34;5069634;28;20455;-78
2022/07/24 05:54:24;;;;;;;41.00;16.90;;;;;;;22.39;64.67;93284.50;5069733;28;20049;-77
2022/07/24 05:56:52;;;;;;;38.78;16.48;;;;;;;22.39;64.56;93284.50;5069365;28;20565;-78
2022/07/24 05:59:19;;;;;;;44.78;19.15;;;;;;;22.54;64.23;93273.09;5068858;28;20097;-79
2022/07/24 06:01:46;;;;;;;43.63;20.10;;;;;;;22.81;56.99;93272.44;5069133;28;20117;-79
2022/07/24 06:04:13;;;;;;;43.10;20.00;;;;;;;23.03;52.46;93271.06;5069543;28;20093;-78
2022/07/24 06:06:39;;;;;;;42.88;19.05;;;;;;;23.31;55.60;93270.34;5064763;28;20053;-79
2022/07/24 06:09:06;;;;;;;62.25;24.75;;;;;;;23.58;52.83;93274.13;5048374;28;20413;-79
2022/07/24 06:11:33;;;;;;;46.92;19.15;;;;;;;23.76;53.74;93282.97;5048854;28;20053;-79
2022/07/24 06:14:01;;;;;;;43.72;18.95;;;;;;;24.01;53.21;93279.09;5048786;28;20073;-79
2022/07/24 06:16:28;;;;;;;41.78;18.58;;;;;;;24.28;53.80;93269.69;5048639;28;20049;-80
2022/07/24 06:18:55;;;;;;;38.50;17.35;;;;;;;24.51;53.36;93271.56;5048356;28;20665;-80
2022/07/24 06:21:21;;;;;;;34.30;17.87;;;;;;;24.86;52.27;93274.50;5060805;28;20048;-80
2022/07/24 06:23:48;;;;;;;35.63;15.88;;;;;;;25.01;50.08;93276.00;5068640;28;20049;-81
2022/07/24 06:26:15;;;;;;;31.45;14.52;;;;;;;25.04;50.10;93272.00;5068136;28;20044;-80
2022/07/24 06:28:42;;;;;;;36.08;13.88;;;;;;;25.35;48.88;93256.25;5068978;28;20053;-80
2022/07/24 06:31:10;;;;;;;31.90;13.77;;;;;;;25.79;48.52;93275.97;5070355;28;20546;-80
2022/07/24 06:33:36;;;;;;;31.77;13.52;;;;;;;25.86;47.60;93274.44;5073029;28;20052;-81
2022/07/24 06:36:03;;;;;;;28.15;11.95;;;;;;;26.26;47.97;93267.63;5072766;28;20500;-81
2022/07/24 06:38:30;;;;;;;36.75;10.70;;;;;;;26.54;47.23;93264.69;5072958;28;20053;-78
2022/07/24 06:40:57;;;;;;;23.95;8.40;;;;;;;26.82;45.44;93267.03;5072707;28;20049;-80
2022/07/24 06:43:24;;;;;;;23.73;9.27;;;;;;;27.15;44.44;93260.50;5072612;28;20049;-80
2022/07/24 06:45:50;;;;;;;26.70;9.68;;;;;;;27.42;44.71;93255.94;5072910;28;20091;-80
2022/07/24 06:48:18;;;;;;;26.15;8.65;;;;;;;27.83;44.15;93270.44;5072478;28;20052;-79
2022/07/24 06:50:46;;;;;;;28.52;11.00;;;;;;;28.20;43.10;93272.59;5072719;28;20071;-80
2022/07/24 06:53:12;;;;;;;31.20;13.15;;;;;;;27.43;45.76;93263.56;5070597;28;20129;-79
2022/07/24 06:55:39;;;;;;;34.28;12.45;;;;;;;27.48;44.67;93259.97;5056042;28;20419;-80
2022/07/24 06:58:06;;;;;;;30.98;12.07;;;;;;;28.01;45.00;93263.19;5071386;28;20487;-79
2022/07/24 07:00:33;;;;;;;29.77;12.13;;;;;;;28.09;44.77;93258.94;5072380;28;20053;-80
2022/07/24 07:02:59;;;;;;;31.75;13.48;;;;;;;28.33;44.68;93256.84;5072815;28;20102;-80
2022/07/24 07:05:27;;;;;;;31.55;12.38;;;;;;;28.77;43.82;93245.94;5072085;28;20048;-80
2022/07/24 07:07:54;;;;;;;34.30;13.65;;;;;;;29.28;43.21;93251.09;5070116;28;20048;-80
2022/07/24 07:10:21;;;;;;;30.23;11.25;;;;;;;29.66;41.74;93248.53;5068494;28;20488;-80
2022/07/24 07:12:48;;;;;;;27.50;13.05;;;;;;;30.00;41.29;93243.91;5072083;28;20135;-81
2022/07/24 07:15:14;;;;;;;35.92;12.60;;;;;;;30.32;40.02;93241.47;5072370;28;20051;-80
2022/07/24 07:17:42;;;;;;;42.97;17.83;;;;;;;30.74;38.38;93239.63;5072219;28;20048;-80
2022/07/24 07:20:11;;;;;;;37.95;19.33;;;;;;;31.00;37.04;93243.72;5069195;28;20036;-81
2022/07/24 07:22:40;;;;;;;43.75;19.60;;;;;;;31.27;37.30;93244.78;5063339;28;20057;-81
2022/07/24 07:25:08;;;;;;;45.80;19.52;;;;;;;31.36;35.30;93249.19;5062873;28;20058;-80
2022/07/24 07:27:35;;;;;;;43.88;19.15;;;;;;;30.85;36.34;93235.38;5063223;28;20040;-80
2022/07/24 07:30:02;;;;;;;39.75;19.40;;;;;;;31.31;36.49;93239.59;5063363;28;20055;-81
2022/07/24 07:32:29;;;;;;;49.67;20.45;;;;;;;31.55;36.99;93235.25;5070535;28;20455;-80
2022/07/24 07:34:55;;;;;;;46.35;20.33;;;;;;;31.89;36.38;93237.59;5071615;28;20056;-81
2022/07/24 07:37:22;;;;;;;50.25;22.23;;;;;;;32.29;36.31;93238.47;5071609;28;20097;-81
2022/07/24 07:39:50;;;;;;;54.97;22.98;;;;;;;32.53;35.95;93229.47;5071430;28;20455;-80
2022/07/24 07:42:17;;;;;;;53.20;24.83;;;;;;;32.68;36.81;93238.53;5070876;28;20052;-81
2022/07/24 07:44:44;;;;;;;50.08;23.05;;;;;;;33.02;35.46;93230.81;5071634;28;20048;-80
2022/07/24 07:47:11;;;;;;;39.83;16.63;;;;;;;33.21;34.69;93242.56;5071383;28;20568;-80
2022/07/24 07:49:37;;;;;;;38.08;16.23;;;;;;;32.52;33.88;93243.88;5071173;28;20044;-81
2022/07/24 07:52:04;;;;;;;37.08;16.40;;;;;;;32.61;35.17;93239.13;5071164;28;20569;-81
2022/07/24 07:54:31;;;;;;;40.35;15.50;;;;;;;31.93;36.59;93238.44;5071434;28;20052;-81
2022/07/24 07:56:59;;;;;;;33.15;15.18;;;;;;;30.80;37.28;93240.91;5071194;28;20496;-81
2022/07/24 07:59:26;;;;;;;37.67;14.30;;;;;;;31.72;36.22;93231.47;5071101;28;20041;-81
2022/07/24 08:01:53;;;;;;;30.30;12.90;;;;;;;31.18;35.91;93234.34;5067795;28;20440;-80
2022/07/24 08:04:20;;;;;;;30.90;14.00;;;;;;;30.92;35.99;93230.25;5068334;28;20105;-80
2022/07/24 08:06:46;;;;;;;28.30;11.88;;;;;;;31.54;35.00;93234.50;5069803;28;20048;-79
2022/07/24 08:09:13;;;;;;;35.45;12.15;;;;;;;31.79;35.14;93233.53;5059726;28;20106;-80
2022/07/24 08:11:40;;;;;;;23.20;10.25;;;;;;;31.22;34.00;93202.59;5069484;28;20052;-80
2022/07/24 08:14:08;;;;;;;28.48;9.00;;;;;;;31.44;34.82;93233.13;5070803;28;20044;-79
2022/07/24 08:16:34;;;;;;;24.95;10.02;;;;;;;31.58;34.48;93234.56;5070760;28;20082;-80
2022/07/24 08:19:01;;;;;;;29.40;9.80;;;;;;;31.62;33.85;93232.78;5070441;28;20877;-81
2022/07/24 08:21:28;;;;;;;22.05;7.50;;;;;;;31.85;32.29;93229.53;5070661;28;20045;-80
2022/07/24 08:23:55;;;;;;;26.33;8.57;;;;;;;32.35;31.31;93235.16;5070737;28;20122;-80
2022/07/24 08:26:21;;;;;;;36.10;9.27;;;;;;;31.84;33.06;93234.03;5070302;28;20040;-79
2022/07/24 08:28:48;;;;;;;25.27;8.20;;;;;;;31.71;32.54;93209.47;5070402;28;20048;-79
2022/07/24 08:31:20;;;;;;;22.70;10.18;;;;;;;31.96;33.22;93233.22;5070324;28;20094;-81
2022/07/24 08:33:46;;;;;;;19.95;7.95;;;;;;;32.13;31.06;93233.94;5070111;28;20048;-78
2022/07/24 08:36:13;;;;;;;19.50;7.43;;;;;;;31.79;30.68;93205.09;5070199;28;20098;-80
2022/07/24 08:38:40;;;;;;;24.27;8.98;;;;;;;32.28;30.42;93215.63;5064141;28;20044;-80
2022/07/24 08:41:07;;;;;;;18.42;6.80;;;;;;;32.33;29.79;93231.31;5069556;28;20045;-82
2022/07/24 08:43:33;;;;;;;19.70;8.52;;;;;;;33.00;29.99;93233.06;5069620;28;20516;-82
2022/07/24 08:46:01;;;;;;;15.75;6.38;;;;;;;33.27;26.91;93232.41;5070453;28;20435;-82
2022/07/24 08:48:29;;;;;;;19.50;5.95;;;;;;;33.99;26.30;93222.13;5070108;28;20052;-82
2022/07/24 08:50:57;;;;;;;13.45;5.50;;;;;;;33.51;25.51;93227.84;5070127;28;20054;-80
2022/07/24 08:53:24;;;;;;;11.95;4.75;;;;;;;33.90;25.87;93232.25;5069487;28;20048;-81
2022/07/24 08:55:51;;;;;;;11.90;4.80;;;;;;;34.40;24.82;93229.56;5069369;28;20048;-81
2022/07/24 08:58:18;;;;;;;10.57;4.60;;;;;;;34.35;23.23;93222.66;5069944;28;20067;-81
2022/07/24 09:00:45;;;;;;;10.70;4.85;;;;;;;34.64;24.92;93224.91;5069788;28;20493;-81
2022/07/24 09:03:12;;;;;;;7.22;4.25;;;;;;;34.95;24.73;93223.00;5069622;28;20094;-82
2022/07/24 09:05:56;;;;;;;8.43;4.22;;;;;;;35.14;24.28;93219.41;5069488;28;20052;-82
2022/07/24 09:08:23;;;;;;;11.90;5.43;;;;;;;35.29;23.51;93227.53;5069871;28;20052;-82
2022/07/24 09:11:03;;;;;;;8.85;5.00;;;;;;;35.88;23.76;93226.91;5069559;28;20044;-81
2022/07/24 09:14:29;;;;;;;14.77;6.28;;;;;;;36.55;25.11;93210.09;5051184;28;20053;-82
2022/07/24 09:16:22;;;;;;;12.88;6.00;;;;;;;37.10;24.22;93213.69;5067955;28;20059;-82
2022/07/24 09:18:50;;;;;;;13.88;5.97;;;;;;;36.34;24.71;93224.91;5069511;28;20041;-82
2022/07/24 09:21:19;;;;;;;13.13;5.88;;;;;;;36.51;25.93;93220.78;5069080;28;20052;-82
2022/07/24 09:23:48;;;;;;;12.60;5.90;;;;;;;36.33;26.01;93226.03;5068345;28;20090;-81
2022/07/24 09:26:15;;;;;;;13.57;5.15;;;;;;;35.75;26.18;93212.28;5063368;28;20493;-81
2022/07/24 09:28:50;;;;;;;12.45;5.53;;;;;;;35.82;26.48;93225.72;5055886;28;20045;-82
2022/07/24 09:31:16;;;;;;;;;;;;;;;35.89;26.77;93231.09;5058186;28;20041;-82
2022/07/24 09:33:43;;;;;;;12.43;5.22;;;;;;;35.79;26.76;93229.09;5058952;28;19924;-82
2022/07/24 09:36:15;;;;;;;11.25;5.82;;;;;;;35.80;26.65;93220.72;5059769;28;20113;-81
2022/07/24 09:38:48;;;;;;;10.27;4.75;;;;;;;35.74;26.76;93227.56;5059106;28;20093;-82
2022/07/24 09:41:21;;;;;;;14.57;4.72;;;;;;;35.63;26.53;93227.47;5057731;28;20048;-82
2022/07/24 09:43:58;;;;;;;10.23;5.07;;;;;;;35.40;26.91;93232.97;5058223;28;20144;-81
2022/07/24 09:46:26;;;;;;;8.13;4.40;;;;;;;35.05;26.80;93229.56;5058546;28;20408;-81
2022/07/24 09:48:55;;;;;;;11.60;4.90;;;;;;;34.87;28.06;93235.47;5060306;28;20068;-81
2022/07/24 09:51:23;;;;;;;10.38;5.22;;;;;;;35.05;27.78;93232.22;5058579;28;20119;-81
2022/07/24 09:53:56;;;;;;;9.00;5.25;;;;;;;34.82;27.82;93229.69;5058789;28;20053;-81
2022/07/24 09:56:23;;;;;;;12.25;6.10;;;;;;;34.38;28.57;93231.81;5058495;28;20078;-81
2022/07/24 09:58:52;;;;;;;10.45;5.65;;;;;;;34.32;28.31;93225.25;5059860;28;20118;-81
2022/07/24 10:01:21;;;;;;;12.23;4.95;;;;;;;34.50;27.76;93215.59;5060322;28;20127;-81
2022/07/24 10:03:49;;;;;;;10.45;4.53;;;;;;;34.47;28.09;93215.56;5060594;28;20451;-81
2022/07/24 10:06:18;;;;;;;7.88;4.63;;;;;;;34.94;28.25;93221.44;5058344;28;20496;-81
2022/07/24 10:08:48;;;;;;;9.90;5.18;;;;;;;35.22;27.32;93222.91;5060235;28;20044;-82
2022/07/24 10:11:18;;;;;;;11.25;5.32;;;;;;;35.28;28.08;93220.66;5069385;28;20048;-82
2022/07/24 10:13:45;;;;;;;9.55;4.90;;;;;;;35.47;27.46;93216.22;5069220;28;20080;-82
2022/07/24 10:16:30;;;;;;;13.80;5.50;;;;;;;35.82;27.44;93212.34;5069200;28;20078;-82
2022/07/24 10:18:57;;;;;;;;;;;;;;;36.11;27.06;93213.31;5069288;28;20459;-82
2022/07/24 10:21:26;;;;;;;8.80;4.88;;;;;;;36.22;26.43;93212.59;5069081;28;20422;-82
2022/07/24 10:24:34;;;;;;;11.80;5.53;;;;;;;36.54;26.31;93212.00;5068976;28;20072;-81
2022/07/24 10:27:05;;;;;;;13.43;6.32;;;;;;;37.00;26.16;93213.31;5051894;28;20056;-81
2022/07/24 10:29:35;;;;;;;10.40;5.90;;;;;;;37.30;26.04;93200.78;5069096;28;20106;-82
2022/07/24 10:32:02;;;;;;;12.85;5.30;;;;;;;37.66;25.84;93203.47;5069108;28;20136;-82
2022/07/24 10:34:37;;;;;;;10.75;5.55;;;;;;;37.91;24.58;93209.97;5068746;28;20067;-82
2022/07/24 10:37:12;;;;;;;13.52;6.13;;;;;;;38.00;24.64;93207.66;5068951;28;20045;-81
2022/07/24 10:39:48;;;;;;;11.15;6.07;;;;;;;37.08;24.55;93184.66;5068740;28;20045;-79
2022/07/24 10:42:16;;;;;;;11.38;4.93;;;;;;;36.19;25.83;93208.75;5068856;28;20044;-81
2022/07/24 10:44:44;;;;;;;9.93;5.55;;;;;;;36.36;25.02;93206.56;5068769;28;20045;-79
2022/07/24 10:47:13;;;;;;;9.88;5.13;;;;;;;36.63;26.36;93200.97;5068520;28;20528;-83
2022/07/24 10:49:47;;;;;;;9.60;5.30;;;;;;;36.70;26.05;93194.88;5068976;28;20082;-84
2022/07/24 10:52:27;;;;;;;8.90;5.20;;;;;;;36.97;26.45;93195.31;5068471;28;20416;-89
2022/07/24 10:55:24;;;;;;;12.68;5.63;;;;;;;37.33;26.13;93178.56;5068582;28;20041;-84
2022/07/24 10:58:00;;;;;;;7.57;4.55;;;;;;;37.52;24.74;93185.47;5034015;28;20053;-82
2022/07/24 11:00:31;;;;;;;7.65;4.25;;;;;;;37.68;26.39;93185.09;5068876;28;20048;-80
2022/07/24 11:03:00;;;;;;;13.68;5.28;;;;;;;37.47;25.09;93187.78;5050214;28;20049;-80
2022/07/24 11:05:31;;;;;;;7.95;4.45;;;;;;;37.48;24.75;93182.00;5066473;28;20479;-81
2022/07/24 11:08:34;;;;;;;8.75;5.28;;;;;;;36.71;25.76;93183.03;5068449;28;20091;-81
2022/07/24 11:11:07;;;;;;;9.27;4.97;;;;;;;36.75;25.02;93167.75;5058703;28;20056;-80
2022/07/24 11:13:44;;;;;;;11.27;5.38;;;;;;;36.33;25.85;93177.91;5068276;28;20532;-80
2022/07/24 11:16:23;;;;;;;7.55;4.85;;;;;;;35.69;26.94;93175.22;5068556;28;20052;-79
2022/07/24 11:19:31;;;;;;;10.48;5.85;;;;;;;35.63;26.40;93174.03;5070504;28;20492;-80
2022/07/24 11:22:12;;;;;;;21.20;15.68;;;;;;;36.10;27.23;93170.88;5072187;28;20067;-81
2022/07/24 11:25:03;;;;;;;9.10;6.03;;;;;;;36.94;26.87;93169.31;5069870;28;20044;-82
2022/07/24 11:27:42;;;;;;;9.30;4.93;;;;;;;37.76;25.89;93152.94;5058578;28;20054;-82
2022/07/24 11:30:11;;;;;;;8.23;5.55;;;;;;;38.34;24.04;93161.59;5071971;28;20040;-82